Time;durP1;ratioP1;P1;durP2;ratioP2;P2;SDS_P1;SDS_P2;PMS_P1;PMS_P2;Temp;Humidity;BMP_temperature;BMP_pressure;BME280_temperature;BME280_humidity;BME280_pressure;Samples;Min_cycle;Max_cycle;Signal;HPM_P1;HPM_P2
2023/10/14 00:02:15;;;;;;;10.20;9.90;;;18.90;99.90;;;;;;5087348;28;20230;-87
2023/10/14 00:04:58;;;;;;;10.07;9.77;;;18.90;99.90;;;;;;5086598;28;20304;-87
2023/10/14 00:07:26;;;;;;;9.95;9.65;;;18.90;99.90;;;;;;5093717;28;20250;-87
2023/10/14 00:09:59;;;;;;;10.25;9.95;;;19.00;99.90;;;;;;5085803;28;20242;-87
2023/10/14 00:12:28;;;;;;;10.13;9.82;;;19.00;99.90;;;;;;5085290;28;20254;-86
2023/10/14 00:15:03;;;;;;;9.98;9.68;;;19.10;99.90;;;;;;5067864;28;20257;-87
2023/10/14 00:17:37;;;;;;;10.10;9.80;;;19.10;99.90;;;;;;5084804;28;20217;-87
2023/10/14 00:20:10;;;;;;;10.10;9.80;;;19.10;99.90;;;;;;5085430;28;20285;-87
2023/10/14 00:22:48;;;;;;;10.07;9.77;;;19.10;99.90;;;;;;5085446;28;20226;-87
2023/10/14 00:25:23;;;;;;;10.02;9.73;;;19.20;99.90;;;;;;5085214;28;20229;-87
2023/10/14 00:27:57;;;;;;;10.10;9.80;;;19.20;99.90;;;;;;5085612;28;20230;-87
2023/10/14 00:30:27;;;;;;;9.70;9.40;;;19.10;99.90;;;;;;5085172;28;20287;-87
2023/10/14 00:32:57;;;;;;;9.95;9.65;;;19.10;99.90;;;;;;5085753;28;20296;-86
2023/10/14 00:41:02;;;;;;;9.90;9.60;;;19.20;99.90;;;;;;5084864;28;20222;-87
2023/10/14 00:43:30;;;;;;;10.00;9.70;;;19.30;99.90;;;;;;5085101;28;20296;-86
2023/10/14 00:46:01;;;;;;;9.75;9.45;;;19.30;99.90;;;;;;5085268;28;20257;-87
2023/10/14 00:48:29;;;;;;;9.80;9.50;;;19.30;99.90;;;;;;5083950;28;20225;-87
2023/10/14 00:53:52;;;;;;;10.10;9.80;;;19.30;99.90;;;;;;5084524;28;20218;-87
2023/10/14 00:59:03;;;;;;;9.98;9.68;;;19.30;99.90;;;;;;5083906;28;20234;-87
2023/10/14 01:01:51;;;;;;;10.20;9.90;;;19.30;99.90;;;;;;5084911;28;20302;-87
2023/10/14 01:04:19;;;;;;;10.00;9.70;;;19.30;99.90;;;;;;5085945;28;20230;-87
2023/10/14 01:07:02;;;;;;;10.10;9.80;;;19.30;99.90;;;;;;5089589;28;20249;-87
2023/10/14 01:09:42;;;;;;;10.20;9.90;;;19.30;99.90;;;;;;5093545;28;20234;-88
2023/10/14 01:17:38;;;;;;;10.30;10.00;;;19.40;99.90;;;;;;5083876;28;20361;-87
2023/10/14 01:20:26;;;;;;;10.25;9.95;;;19.40;99.90;;;;;;5084096;28;20367;-87
2023/10/14 01:25:46;;;;;;;10.30;10.00;;;19.40;99.90;;;;;;5083502;28;20236;-87
2023/10/14 01:31:38;;;;;;;10.30;10.00;;;19.40;99.90;;;;;;5162408;27;20542;-86
2023/10/14 01:34:24;;;;;;;10.30;10.00;;;19.40;99.90;;;;;;5142882;27;20224;-87
2023/10/14 01:36:52;;;;;;;10.30;10.00;;;19.50;99.90;;;;;;5142659;27;20216;-87
2023/10/14 01:39:26;;;;;;;10.18;9.88;;;19.40;99.90;;;;;;5142990;27;20283;-86
2023/10/14 01:47:44;;;;;;;10.40;10.10;;;19.40;99.90;;;;;;5143275;27;20224;-87
2023/10/14 01:53:10;;;;;;;10.30;10.00;;;19.30;99.90;;;;;;5143073;27;20220;-87
2023/10/14 02:05:06;;;;;;;10.20;9.90;;;19.20;99.90;;;;;;5106034;27;20281;-87
2023/10/14 02:07:37;;;;;;;10.30;10.00;;;19.20;99.90;;;;;;5146562;27;20291;-87
2023/10/14 02:10:05;;;;;;;10.35;10.05;;;19.20;99.90;;;;;;5145113;27;20287;-87
2023/10/14 02:15:15;;;;;;;10.07;9.77;;;19.20;99.90;;;;;;5143702;27;21104;-87
2023/10/14 02:17:42;;;;;;;10.40;10.10;;;19.20;99.90;;;;;;5142737;27;20232;-87
2023/10/14 02:20:27;;;;;;;10.30;10.00;;;19.20;99.90;;;;;;5142232;27;20236;-87
2023/10/14 02:23:11;;;;;;;10.23;9.93;;;19.20;99.90;;;;;;5147140;27;20206;-87
2023/10/14 02:25:45;;;;;;;10.15;9.85;;;19.20;99.90;;;;;;5146210;27;20220;-87
2023/10/14 02:28:28;;;;;;;10.20;9.90;;;19.20;99.90;;;;;;5145436;27;20284;-87
2023/10/14 02:31:00;;;;;;;10.07;9.77;;;19.20;99.90;;;;;;5142598;27;20236;-86
2023/10/14 02:33:31;;;;;;;10.18;9.88;;;19.20;99.90;;;;;;5142271;27;20245;-87
2023/10/14 02:38:53;;;;;;;10.05;9.75;;;19.30;99.90;;;;;;5147014;27;20232;-87
2023/10/14 02:41:21;;;;;;;9.95;9.65;;;19.30;99.90;;;;;;5145573;27;20247;-87
2023/10/14 02:46:55;;;;;;;10.18;9.88;;;19.40;99.90;;;;;;5127934;27;20229;-87
2023/10/14 02:49:25;;;;;;;10.20;9.90;;;19.40;99.90;;;;;;5128637;27;20247;-87
2023/10/14 02:52:11;;;;;;;10.10;9.80;;;19.40;99.90;;;;;;5128500;27;20224;-86
2023/10/14 02:54:42;;;;;;;10.25;9.95;;;19.40;99.90;;;;;;5128424;27;20272;-88
2023/10/14 02:57:28;;;;;;;10.15;9.85;;;19.50;99.90;;;;;;5127893;27;20228;-88
2023/10/14 02:59:58;;;;;;;10.23;9.93;;;19.50;99.90;;;;;;5129498;27;20240;-88
2023/10/14 03:02:48;;;;;;;10.15;9.85;;;19.60;99.90;;;;;;5133133;27;20217;-88
2023/10/14 03:08:12;;;;;;;10.00;9.70;;;19.60;99.90;;;;;;5057844;27;3702137;-87
2023/10/14 03:10:42;;;;;;;10.20;9.90;;;19.60;99.90;;;;;;5184666;27;20234;-87
2023/10/14 03:13:19;;;;;;;10.27;9.98;;;19.60;99.90;;;;;;5185266;27;20283;-87
2023/10/14 03:15:47;;;;;;;10.40;10.10;;;19.70;99.90;;;;;;5190001;27;20232;-87
2023/10/14 03:21:22;;;;;;;10.30;10.00;;;19.70;99.90;;;;;;5184827;27;20206;-87
2023/10/14 03:24:06;;;;;;;10.40;10.10;;;19.70;99.90;;;;;;5185471;27;20277;-87
2023/10/14 03:26:45;;;;;;;10.38;10.07;;;19.70;99.90;;;;;;5186230;27;20250;-87
2023/10/14 03:29:16;;;;;;;10.18;9.88;;;19.70;99.90;;;;;;5185903;27;20256;-87
2023/10/14 03:31:44;;;;;;;10.20;9.90;;;19.70;99.90;;;;;;5184990;27;20268;-87
2023/10/14 03:34:13;;;;;;;10.40;10.10;;;19.60;99.90;;;;;;5184567;27;20230;-87
2023/10/14 03:36:43;;;;;;;10.32;10.02;;;19.70;99.90;;;;;;5184708;27;20234;-87
2023/10/14 03:39:23;;;;;;;10.43;10.13;;;19.70;99.90;;;;;;5190720;27;20242;-87
2023/10/14 03:41:52;;;;;;;10.27;9.98;;;19.70;99.90;;;;;;5186052;27;20222;-88
2023/10/14 03:44:22;;;;;;;10.15;9.85;;;19.60;99.90;;;;;;5190464;27;20223;-87
2023/10/14 03:46:59;;;;;;;10.30;10.00;;;19.60;99.90;;;;;;5188117;27;20283;-88
2023/10/14 03:49:29;;;;;;;10.20;9.90;;;19.70;99.90;;;;;;5184636;27;20245;-87
2023/10/14 03:51:58;;;;;;;10.20;9.90;;;19.70;99.90;;;;;;5184760;27;20227;-87
2023/10/14 03:54:30;;;;;;;10.40;10.10;;;19.70;99.90;;;;;;5185572;27;20234;-87
2023/10/14 03:57:03;;;;;;;9.90;9.60;;;19.70;99.90;;;;;;5185324;27;20214;-87
2023/10/14 03:59:46;;;;;;;10.18;9.88;;;19.70;99.90;;;;;;5185052;27;20326;-86
2023/10/14 04:02:25;;;;;;;10.40;10.10;;;19.70;99.90;;;;;;5184804;27;20234;-87
2023/10/14 04:05:01;;;;;;;10.13;9.82;;;19.80;99.90;;;;;;5185292;27;20219;-86
2023/10/14 04:07:29;;;;;;;10.15;9.85;;;19.70;99.90;;;;;;5185762;27;20223;-86
2023/10/14 04:12:53;;;;;;;10.23;9.93;;;19.80;99.90;;;;;;5184931;27;20226;-87
2023/10/14 04:15:44;;;;;;;10.20;9.90;;;19.80;99.90;;;;;;5185199;27;20222;-87
2023/10/14 04:21:13;;;;;;;10.15;9.85;;;19.90;99.90;;;;;;5171914;27;20227;-86
2023/10/14 04:23:59;;;;;;;10.02;9.73;;;19.90;99.90;;;;;;5172062;27;20233;-86
2023/10/14 04:26:48;;;;;;;10.23;9.93;;;19.90;99.90;;;;;;5179637;27;20250;-87
2023/10/14 04:29:34;;;;;;;10.20;9.90;;;20.00;99.90;;;;;;5184466;27;20227;-86
2023/10/14 04:32:13;;;;;;;10.00;9.70;;;20.00;99.90;;;;;;5183773;27;20244;-86
2023/10/14 04:34:46;;;;;;;9.80;9.50;;;20.00;99.90;;;;;;5184426;27;20236;-87
2023/10/14 04:37:20;;;;;;;10.10;9.80;;;20.10;99.90;;;;;;5184548;27;20207;-87
2023/10/14 04:42:43;;;;;;;10.00;9.70;;;20.10;99.90;;;;;;5183096;27;20203;-86
2023/10/14 04:47:58;;;;;;;9.88;9.57;;;20.20;99.90;;;;;;5171632;27;20211;-86
2023/10/14 04:50:26;;;;;;;9.90;9.60;;;20.20;99.90;;;;;;5170223;27;20228;-87
2023/10/14 04:52:57;;;;;;;9.88;9.57;;;20.20;99.90;;;;;;5169927;27;20227;-87
2023/10/14 04:55:42;;;;;;;9.88;9.57;;;20.20;99.90;;;;;;5179591;27;20200;-87
2023/10/14 04:58:30;;;;;;;9.98;9.68;;;20.20;99.90;;;;;;5184447;27;20212;-87
2023/10/14 05:01:00;;;;;;;10.02;9.73;;;20.20;99.90;;;;;;5176843;27;20215;-86
2023/10/14 05:03:29;;;;;;;9.90;9.60;;;20.20;99.90;;;;;;5171392;27;20228;-87
2023/10/14 05:06:03;;;;;;;9.95;9.65;;;20.20;99.90;;;;;;5170603;27;20232;-87
2023/10/14 05:11:14;;;;;;;10.23;9.93;;;20.20;99.90;;;;;;5169015;27;20272;-87
2023/10/14 05:16:31;;;;;;;10.10;9.80;;;20.30;99.90;;;;;;5170947;27;20219;-87
2023/10/14 05:19:00;;;;;;;10.10;9.80;;;20.30;99.90;;;;;;5172400;27;20258;-87
2023/10/14 05:21:42;;;;;;;10.00;9.70;;;20.40;99.90;;;;;;5176042;27;20212;-86
2023/10/14 05:26:58;;;;;;;10.30;10.00;;;20.30;99.90;;;;;;5177201;27;20265;-87
2023/10/14 05:32:15;;;;;;;10.20;9.90;;;20.40;99.90;;;;;;5171651;27;20227;-87
2023/10/14 05:37:36;;;;;;;10.10;9.80;;;20.40;99.90;;;;;;5176009;27;20223;-87
2023/10/14 05:40:13;;;;;;;10.15;9.85;;;20.30;99.90;;;;;;5172613;27;20227;-86
2023/10/14 05:42:45;;;;;;;10.63;10.32;;;20.00;99.90;;;;;;5173677;27;20224;-88
2023/10/14 05:45:22;;;;;;;10.80;10.50;;;19.50;99.90;;;;;;5182378;27;20215;-88
2023/10/14 05:47:51;;;;;;;10.60;10.30;;;18.90;99.90;;;;;;5183327;27;20257;-88
2023/10/14 05:50:19;;;;;;;10.85;10.55;;;18.50;99.90;;;;;;5166292;22;20236;-80
2023/10/14 05:52:47;;;;;;;10.80;10.50;;;18.30;99.90;;;;;;5125215;27;20224;-80
2023/10/14 05:55:19;;;;;;;11.02;10.73;;;18.00;99.90;;;;;;5125218;28;20285;-82
2023/10/14 05:57:48;;;;;;;11.10;10.80;;;17.80;99.90;;;;;;5125947;28;20232;-79
2023/10/14 06:00:22;;;;;;;10.82;10.52;;;17.60;99.90;;;;;;5125478;28;20233;-80
2023/10/14 06:02:51;;;;;;;10.70;10.40;;;17.50;99.90;;;;;;5125250;28;20314;-79
2023/10/14 06:05:21;;;;;;;10.70;10.40;;;17.40;99.90;;;;;;5125479;28;20274;-80
2023/10/14 06:07:48;;;;;;;10.52;10.23;;;17.30;99.90;;;;;;5125182;27;20236;-80
2023/10/14 06:10:20;;;;;;;10.52;10.23;;;17.20;99.90;;;;;;5125371;27;20321;-80
2023/10/14 06:12:51;;;;;;;10.70;10.40;;;17.20;99.90;;;;;;5125245;28;20236;-80
2023/10/14 06:15:21;;;;;;;10.80;10.50;;;17.20;99.90;;;;;;5125992;28;20326;-80
2023/10/14 06:17:51;;;;;;;10.70;10.40;;;17.20;99.90;;;;;;5133682;28;20229;-79
2023/10/14 06:20:20;;;;;;;10.63;10.32;;;17.20;99.90;;;;;;5133205;28;21141;-79
2023/10/14 06:22:50;;;;;;;10.60;10.30;;;17.20;99.90;;;;;;5133117;28;20235;-80
2023/10/14 06:25:17;;;;;;;10.57;10.27;;;17.30;99.90;;;;;;5129795;27;20224;-80
2023/10/14 06:27:48;;;;;;;10.93;10.63;;;17.30;99.90;;;;;;5124936;27;20228;-81
2023/10/14 06:30:20;;;;;;;10.52;10.23;;;17.30;99.90;;;;;;5124435;28;20244;-81
2023/10/14 06:32:58;;;;;;;10.50;10.20;;;17.40;99.90;;;;;;5124702;28;20216;-80
2023/10/14 06:35:26;;;;;;;10.65;10.35;;;17.50;99.90;;;;;;5124510;28;20260;-79
2023/10/14 06:37:55;;;;;;;10.80;10.50;;;17.50;99.90;;;;;;5125728;28;20240;-79
2023/10/14 06:40:22;;;;;;;10.60;10.30;;;17.60;99.90;;;;;;5125948;28;20241;-80
2023/10/14 06:42:50;;;;;;;10.50;10.20;;;17.70;99.90;;;;;;5123234;28;20249;-80
2023/10/14 06:45:22;;;;;;;10.57;10.27;;;17.70;99.90;;;;;;5124681;28;20224;-80
2023/10/14 06:47:51;;;;;;;10.50;10.20;;;17.80;99.90;;;;;;5123955;28;20259;-80
2023/10/14 06:50:23;;;;;;;10.60;10.30;;;17.80;99.90;;;;;;5123125;28;20240;-80
2023/10/14 06:52:53;;;;;;;10.50;10.20;;;17.80;99.90;;;;;;5124545;28;20307;-80
2023/10/14 06:55:22;;;;;;;10.50;10.20;;;17.80;99.90;;;;;;5129565;27;20260;-79
2023/10/14 06:57:55;;;;;;;10.15;9.85;;;17.90;99.90;;;;;;5132421;28;20224;-79
2023/10/14 07:00:30;;;;;;;10.30;10.00;;;17.90;99.90;;;;;;5135710;28;20237;-80
2023/10/14 07:03:02;;;;;;;10.32;10.02;;;17.90;99.90;;;;;;5131803;28;20235;-80
2023/10/14 07:05:31;;;;;;;10.70;10.40;;;18.00;99.90;;;;;;5130888;28;20225;-81
2023/10/14 07:07:59;;;;;;;10.38;10.07;;;18.00;99.90;;;;;;5130903;28;20282;-80
2023/10/14 07:10:32;;;;;;;10.60;10.30;;;18.00;99.90;;;;;;5129485;28;20236;-81
2023/10/14 07:13:01;;;;;;;10.60;10.30;;;18.00;99.90;;;;;;5129657;28;20247;-80
2023/10/14 07:15:31;;;;;;;10.95;10.65;;;18.00;99.90;;;;;;5130335;28;20398;-81
2023/10/14 07:17:59;;;;;;;10.60;10.30;;;18.00;99.90;;;;;;5131801;28;20225;-82
2023/10/14 07:20:29;;;;;;;10.55;10.25;;;18.00;99.90;;;;;;5132303;28;20267;-81
2023/10/14 07:22:58;;;;;;;10.45;10.15;;;18.10;99.90;;;;;;5136011;28;20220;-81
2023/10/14 07:25:29;;;;;;;10.00;9.70;;;18.10;99.90;;;;;;5134846;28;20252;-81
2023/10/14 07:27:59;;;;;;;9.90;9.60;;;18.10;99.90;;;;;;5133432;28;20237;-80
2023/10/14 07:30:28;;;;;;;10.20;9.90;;;18.20;99.90;;;;;;5133407;28;20254;-80
2023/10/14 07:32:56;;;;;;;10.13;9.82;;;18.20;99.90;;;;;;5133357;28;20284;-81
2023/10/14 07:35:32;;;;;;;10.05;9.75;;;18.20;99.90;;;;;;5134264;28;20239;-82
2023/10/14 07:40:41;;;;;;;10.10;9.80;;;18.30;99.90;;;;;;5131557;28;20220;-81
2023/10/14 07:43:11;;;;;;;10.00;9.70;;;18.30;99.90;;;;;;5133582;28;20291;-80
2023/10/14 07:45:42;;;;;;;10.20;9.90;;;18.30;99.90;;;;;;5133447;28;20243;-81
2023/10/14 07:48:12;;;;;;;10.25;9.95;;;18.30;99.90;;;;;;5131784;28;20244;-81
2023/10/14 07:50:46;;;;;;;10.43;10.13;;;18.40;99.90;;;;;;5131033;27;20255;-81
2023/10/14 07:53:22;;;;;;;10.02;9.73;;;18.40;99.90;;;;;;5131604;27;20212;-81
2023/10/14 07:55:51;;;;;;;9.90;9.60;;;18.40;99.90;;;;;;5134218;28;20258;-83
2023/10/14 07:58:26;;;;;;;9.88;9.57;;;18.30;99.90;;;;;;5135391;27;20263;-83
2023/10/14 08:00:55;;;;;;;9.95;9.65;;;18.30;99.90;;;;;;5132432;28;20234;-83
2023/10/14 08:03:25;;;;;;;9.73;9.43;;;18.40;99.90;;;;;;5134848;27;20258;-80
2023/10/14 08:06:05;;;;;;;10.00;9.70;;;18.40;99.90;;;;;;5135939;28;20260;-80
2023/10/14 08:08:42;;;;;;;10.10;9.80;;;18.40;99.90;;;;;;5134835;28;20232;-82
2023/10/14 08:11:12;;;;;;;9.90;9.60;;;18.50;99.90;;;;;;5136535;28;20205;-81
2023/10/14 08:13:40;;;;;;;10.00;9.70;;;18.50;99.90;;;;;;5134832;28;20233;-81
2023/10/14 08:16:11;;;;;;;10.00;9.70;;;18.50;99.90;;;;;;5135972;28;20239;-82
2023/10/14 08:18:41;;;;;;;9.90;9.60;;;18.50;99.90;;;;;;5135609;28;20236;-81
2023/10/14 08:21:11;;;;;;;9.77;9.48;;;18.60;99.90;;;;;;5135358;28;20236;-81
2023/10/14 08:23:38;;;;;;;9.90;9.60;;;18.60;99.90;;;;;;5135087;28;20217;-81
2023/10/14 08:26:12;;;;;;;9.95;9.65;;;18.60;99.90;;;;;;5135187;27;20263;-81
2023/10/14 08:31:23;;;;;;;10.10;9.80;;;18.70;99.90;;;;;;5133305;28;20228;-81
2023/10/14 08:33:53;;;;;;;9.63;9.32;;;18.70;99.90;;;;;;5132815;28;20324;-81
2023/10/14 08:36:26;;;;;;;9.70;9.40;;;18.80;99.90;;;;;;5132770;28;20232;-81
2023/10/14 08:38:53;;;;;;;9.90;9.60;;;18.80;99.90;;;;;;5131967;28;20223;-81
2023/10/14 08:41:25;;;;;;;10.10;9.80;;;18.80;99.90;;;;;;5131703;27;20229;-81
2023/10/14 08:43:56;;;;;;;9.82;9.52;;;18.90;99.90;;;;;;5131417;28;20232;-81
2023/10/14 08:46:29;;;;;;;9.90;9.60;;;18.90;99.90;;;;;;5133895;28;20234;-81
2023/10/14 08:49:01;;;;;;;10.02;9.73;;;18.90;99.90;;;;;;5132833;28;20240;-81
2023/10/14 08:51:37;;;;;;;10.10;9.80;;;18.90;99.90;;;;;;5131412;28;20228;-81
2023/10/14 08:54:10;;;;;;;9.98;9.68;;;19.00;99.90;;;;;;5131456;28;20232;-82
2023/10/14 08:56:39;;;;;;;10.18;9.88;;;18.90;99.90;;;;;;5131718;28;20229;-81
2023/10/14 08:59:07;;;;;;;10.13;9.82;;;18.90;99.90;;;;;;5130732;27;20229;-81
2023/10/14 09:01:36;;;;;;;9.90;9.60;;;18.90;99.90;;;;;;5126178;28;20233;-81
2023/10/14 09:04:08;;;;;;;10.20;9.90;;;18.90;99.90;;;;;;5118150;28;20230;-81
2023/10/14 09:06:37;;;;;;;10.10;9.80;;;18.90;99.90;;;;;;5110706;28;20225;-84
2023/10/14 09:09:20;;;;;;;10.00;9.70;;;19.00;99.90;;;;;;5110471;28;20233;-82
2023/10/14 09:11:51;;;;;;;10.07;9.77;;;18.90;99.90;;;;;;5127557;27;20274;-81
2023/10/14 09:14:20;;;;;;;10.20;9.90;;;18.40;99.90;;;;;;5131631;28;20209;-81
2023/10/14 09:16:53;;;;;;;10.15;9.85;;;17.80;99.90;;;;;;5131525;27;20229;-81
2023/10/14 09:19:21;;;;;;;10.50;10.20;;;17.20;99.90;;;;;;5130687;28;20240;-82
2023/10/14 09:21:57;;;;;;;10.73;10.43;;;16.70;99.90;;;;;;5130837;27;20279;-82
2023/10/14 09:24:28;;;;;;;10.50;10.20;;;16.30;99.90;;;;;;5130196;28;20254;-82
2023/10/14 09:26:58;;;;;;;10.73;10.43;;;15.90;99.90;;;;;;5131860;28;20513;-83
2023/10/14 09:29:26;;;;;;;10.80;10.50;;;15.80;99.90;;;;;;5130624;27;20314;-82
2023/10/14 09:31:59;;;;;;;10.43;10.13;;;15.70;99.90;;;;;;5131241;28;20264;-81
2023/10/14 09:34:27;;;;;;;10.60;10.30;;;15.60;99.90;;;;;;5131043;28;20225;-82
2023/10/14 09:36:58;;;;;;;10.23;9.93;;;15.60;99.90;;;;;;5130871;27;20228;-83
2023/10/14 09:39:28;;;;;;;10.40;10.10;;;15.40;99.90;;;;;;5130746;28;20321;-82
2023/10/14 09:41:58;;;;;;;10.30;10.00;;;15.50;99.90;;;;;;5129572;28;20241;-83
2023/10/14 09:47:10;;;;;;;10.20;9.90;;;15.80;99.90;;;;;;5128722;28;20221;-83
2023/10/14 09:49:40;;;;;;;10.32;10.02;;;15.90;99.90;;;;;;5128252;28;20237;-83
2023/10/14 09:52:15;;;;;;;10.30;10.00;;;16.00;99.90;;;;;;5128594;27;20221;-83
2023/10/14 09:57:42;;;;;;;10.30;10.00;;;16.00;99.90;;;;;;5208398;27;20521;-82
2023/10/14 10:00:12;;;;;;;10.15;9.85;;;15.80;99.90;;;;;;5187020;27;20247;-82
2023/10/14 10:02:43;;;;;;;10.15;9.85;;;15.80;99.90;;;;;;5187640;27;20317;-82
2023/10/14 10:05:19;;;;;;;10.20;9.90;;;15.80;99.90;;;;;;5187394;27;20239;-82
2023/10/14 10:08:07;;;;;;;10.10;9.80;;;15.90;99.90;;;;;;5189033;27;20255;-82
2023/10/14 10:10:36;;;;;;;10.60;10.30;;;15.90;99.90;;;;;;5188007;27;20255;-82
2023/10/14 10:13:06;;;;;;;10.30;10.00;;;15.80;99.90;;;;;;5188743;27;20278;-82
2023/10/14 10:15:35;;;;;;;10.38;10.07;;;15.70;99.90;;;;;;5188002;27;20322;-82
2023/10/14 10:18:12;;;;;;;10.40;10.10;;;15.60;99.90;;;;;;5189249;27;20227;-83
2023/10/14 10:20:49;;;;;;;10.30;10.00;;;15.60;99.90;;;;;;5189030;27;20268;-82
2023/10/14 10:23:17;;;;;;;10.15;9.85;;;15.60;99.90;;;;;;5187492;27;20226;-81
2023/10/14 10:25:51;;;;;;;10.10;9.80;;;15.60;99.90;;;;;;5189022;27;20301;-82
2023/10/14 10:28:40;;;;;;;9.80;9.50;;;15.60;99.90;;;;;;5188725;27;20226;-83
2023/10/14 10:31:10;;;;;;;10.10;9.80;;;15.60;99.90;;;;;;5175283;27;20257;-81
2023/10/14 10:33:53;;;;;;;10.00;9.70;;;15.60;99.90;;;;;;5167976;27;20241;-80
2023/10/14 10:36:27;;;;;;;10.10;9.80;;;15.60;99.90;;;;;;5168334;27;20231;-81
2023/10/14 10:38:55;;;;;;;10.18;9.88;;;15.50;99.90;;;;;;5168005;27;20239;-81
2023/10/14 10:41:26;;;;;;;10.07;9.77;;;15.50;99.90;;;;;;5168678;27;20227;-81
2023/10/14 10:44:05;;;;;;;10.10;9.80;;;15.50;99.90;;;;;;5167838;27;20349;-81
2023/10/14 10:46:39;;;;;;;9.80;9.50;;;15.60;99.90;;;;;;5168510;27;20235;-81
2023/10/14 10:49:11;;;;;;;9.80;9.50;;;15.70;99.90;;;;;;5168637;27;20326;-81
2023/10/14 10:51:50;;;;;;;9.75;9.45;;;15.80;99.90;;;;;;5167223;27;20230;-83
2023/10/14 10:54:20;;;;;;;9.93;9.63;;;15.90;99.90;;;;;;5172895;27;20261;-80
2023/10/14 10:56:49;;;;;;;9.73;9.43;;;15.90;99.90;;;;;;5187203;27;20221;-81
2023/10/14 10:59:19;;;;;;;10.10;9.80;;;16.00;99.90;;;;;;5187497;27;20306;-80
2023/10/14 11:01:47;;;;;;;9.80;9.50;;;16.00;99.90;;;;;;5187688;27;20231;-81
2023/10/14 11:04:15;;;;;;;10.27;9.98;;;16.00;99.90;;;;;;5187412;27;20227;-80
2023/10/14 11:06:43;;;;;;;10.30;10.00;;;15.90;99.90;;;;;;5187487;27;20212;-81
2023/10/14 11:09:14;;;;;;;10.10;9.80;;;15.90;99.90;;;;;;5173250;27;20228;-80
2023/10/14 11:11:43;;;;;;;9.90;9.60;;;15.90;99.90;;;;;;5173139;27;20237;-81
2023/10/14 11:14:23;;;;;;;10.20;9.90;;;15.90;99.90;;;;;;5173896;27;20338;-81
2023/10/14 11:16:53;;;;;;;9.75;9.45;;;15.80;99.90;;;;;;5173475;27;20283;-81
2023/10/14 11:19:20;;;;;;;9.77;9.48;;;15.80;99.90;;;;;;5173321;27;20231;-80
2023/10/14 11:21:50;;;;;;;9.88;9.57;;;15.80;99.90;;;;;;5173533;27;20241;-81
2023/10/14 11:24:18;;;;;;;9.77;9.48;;;15.80;99.90;;;;;;5172623;27;20219;-83
2023/10/14 11:26:47;;;;;;;9.85;9.55;;;15.80;99.90;;;;;;5174102;27;20310;-81
2023/10/14 11:29:17;;;;;;;9.48;9.18;;;15.70;99.90;;;;;;5172214;27;20296;-80
2023/10/14 11:32:06;;;;;;;9.63;9.32;;;15.70;99.90;;;;;;5176028;27;20234;-85
2023/10/14 11:34:35;;;;;;;9.50;9.20;;;15.60;99.90;;;;;;5169208;27;20284;-86
2023/10/14 11:37:10;;;;;;;9.80;9.50;;;15.70;99.90;;;;;;5169727;27;20235;-85
2023/10/14 11:39:46;;;;;;;9.45;9.15;;;15.60;99.90;;;;;;5166119;27;20239;-85
2023/10/14 11:42:14;;;;;;;9.50;9.20;;;15.70;99.90;;;;;;5170017;27;20234;-81
2023/10/14 11:44:41;;;;;;;9.23;8.93;;;15.60;99.90;;;;;;5169072;27;20236;-81
2023/10/14 11:47:16;;;;;;;9.52;9.23;;;15.70;99.90;;;;;;5169543;27;20318;-83
2023/10/14 11:49:50;;;;;;;9.40;9.10;;;15.90;99.90;;;;;;5170717;27;20239;-83
2023/10/14 11:52:19;;;;;;;9.60;9.30;;;16.00;99.90;;;;;;5166897;27;20228;-82
2023/10/14 11:54:58;;;;;;;9.50;9.20;;;16.10;99.90;;;;;;5169732;27;20240;-86
2023/10/14 11:57:26;;;;;;;9.30;9.00;;;16.30;99.90;;;;;;5169756;27;20371;-84
2023/10/14 11:59:56;;;;;;;9.70;9.40;;;16.40;99.90;;;;;;5167463;27;20227;-84
2023/10/14 12:02:43;;;;;;;9.50;9.20;;;16.50;99.90;;;;;;5163334;27;20239;-84
2023/10/14 12:05:13;;;;;;;9.60;9.30;;;16.50;99.90;;;;;;5165098;27;20227;-85
2023/10/14 12:07:40;;;;;;;9.48;9.18;;;16.70;99.90;;;;;;5166396;27;20315;-83
2023/10/14 12:10:09;;;;;;;9.70;9.40;;;16.80;99.90;;;;;;5167437;27;20269;-82
2023/10/14 12:12:38;;;;;;;9.80;9.50;;;16.90;99.90;;;;;;5168879;27;20298;-82
2023/10/14 12:15:08;;;;;;;10.10;9.80;;;16.90;99.90;;;;;;5166991;27;20224;-82
2023/10/14 12:17:39;;;;;;;9.77;9.48;;;16.80;99.90;;;;;;5167258;27;20227;-83
2023/10/14 12:20:10;;;;;;;9.68;9.38;;;16.80;99.90;;;;;;5169145;27;20303;-82
2023/10/14 12:22:39;;;;;;;9.93;9.63;;;16.70;99.90;;;;;;5168745;27;20267;-82
2023/10/14 12:25:08;;;;;;;10.10;9.80;;;16.60;99.90;;;;;;5167514;27;20233;-82
2023/10/14 12:27:35;;;;;;;9.90;9.60;;;16.40;99.90;;;;;;5166462;27;20318;-81
2023/10/14 12:30:06;;;;;;;10.00;9.70;;;16.30;99.90;;;;;;5166232;27;20315;-82
2023/10/14 12:32:36;;;;;;;9.95;9.65;;;16.20;99.90;;;;;;5167073;27;20247;-82
2023/10/14 12:35:11;;;;;;;9.90;9.60;;;16.10;99.90;;;;;;5166492;27;20227;-83
2023/10/14 12:37:39;;;;;;;9.90;9.60;;;16.10;99.90;;;;;;5167887;27;20226;-83
2023/10/14 12:40:11;;;;;;;9.70;9.40;;;16.00;99.90;;;;;;5166982;27;20265;-82
2023/10/14 12:42:46;;;;;;;9.70;9.40;;;15.70;99.90;;;;;;5167055;27;20234;-82
2023/10/14 12:45:22;;;;;;;9.70;9.40;;;15.70;99.90;;;;;;5166896;27;20226;-82
2023/10/14 12:47:56;;;;;;;9.60;9.30;;;15.70;99.90;;;;;;5166901;27;20242;-83
2023/10/14 12:50:25;;;;;;;9.40;9.10;;;15.80;99.90;;;;;;5166466;27;20296;-81
2023/10/14 12:52:56;;;;;;;9.60;9.30;;;15.80;99.90;;;;;;5165595;27;20277;-81
2023/10/14 12:55:24;;;;;;;9.52;9.23;;;15.80;99.90;;;;;;5165525;27;20243;-81
2023/10/14 12:57:51;;;;;;;9.50;9.20;;;15.90;99.90;;;;;;5169217;27;20299;-82
2023/10/14 13:00:25;;;;;;;9.40;9.10;;;15.80;99.90;;;;;;5168936;27;20223;-81
2023/10/14 13:02:53;;;;;;;9.60;9.30;;;15.60;99.90;;;;;;5167494;27;20220;-81
2023/10/14 13:05:20;;;;;;;9.38;9.07;;;15.50;99.90;;;;;;5165529;27;20219;-81
2023/10/14 13:07:52;;;;;;;9.70;9.40;;;15.30;99.90;;;;;;5166067;27;20227;-81
2023/10/14 13:10:19;;;;;;;10.10;9.80;;;14.90;99.90;;;;;;5165837;27;20244;-81
2023/10/14 13:12:53;;;;;;;9.90;9.60;;;14.80;99.90;;;;;;5165231;27;20274;-81
2023/10/14 13:15:29;;;;;;;10.00;9.70;;;14.60;99.90;;;;;;5164951;27;20303;-82
2023/10/14 13:17:57;;;;;;;9.75;9.45;;;14.70;99.90;;;;;;5165823;27;20326;-81
2023/10/14 13:20:29;;;;;;;9.70;9.40;;;14.70;99.90;;;;;;5164505;27;20291;-81
2023/10/14 13:23:03;;;;;;;9.90;9.60;;;14.70;99.90;;;;;;5164069;27;20224;-81
2023/10/14 13:25:36;;;;;;;10.00;9.70;;;14.70;99.90;;;;;;5165303;27;20227;-80
2023/10/14 13:28:08;;;;;;;10.30;10.00;;;14.70;99.90;;;;;;5164702;27;20284;-81
2023/10/14 13:30:36;;;;;;;10.20;9.90;;;14.70;99.90;;;;;;5164211;27;20231;-81
2023/10/14 13:33:05;;;;;;;10.00;9.70;;;14.80;99.90;;;;;;5164313;27;20238;-81
2023/10/14 13:35:33;;;;;;;10.38;10.07;;;14.90;99.90;;;;;;5165067;27;20235;-80
2023/10/14 13:38:03;;;;;;;10.20;9.90;;;15.00;99.90;;;;;;5165920;27;20302;-81
2023/10/14 13:40:32;;;;;;;10.30;10.00;;;15.10;99.90;;;;;;5164963;27;20234;-80
2023/10/14 13:43:00;;;;;;;10.27;9.98;;;15.20;99.90;;;;;;5164744;27;20230;-80
2023/10/14 13:45:28;;;;;;;10.30;10.00;;;15.30;99.90;;;;;;5165459;27;20211;-81
2023/10/14 13:47:56;;;;;;;9.93;9.63;;;15.30;99.90;;;;;;5165776;27;20250;-80
2023/10/14 13:50:24;;;;;;;9.90;9.60;;;15.30;99.90;;;;;;5165223;27;20319;-81
2023/10/14 13:52:55;;;;;;;10.10;9.80;;;15.30;99.90;;;;;;5164722;27;20307;-80
2023/10/14 13:55:24;;;;;;;10.07;9.77;;;15.30;99.90;;;;;;5164494;27;20247;-79
2023/10/14 13:57:53;;;;;;;10.18;9.88;;;15.40;99.90;;;;;;5165247;27;20223;-81
2023/10/14 14:03:06;;;;;;;9.95;9.65;;;15.40;99.90;;;;;;5164972;27;20313;-80
2023/10/14 14:05:33;;;;;;;10.10;9.80;;;15.30;99.90;;;;;;5164857;27;20234;-80
2023/10/14 14:08:00;;;;;;;10.07;9.77;;;15.30;99.90;;;;;;5164367;27;20227;-80
2023/10/14 14:10:30;;;;;;;10.30;10.00;;;15.20;99.90;;;;;;5164833;27;20262;-80
2023/10/14 14:12:57;;;;;;;10.10;9.80;;;15.10;99.90;;;;;;5163353;27;20223;-80
2023/10/14 14:15:27;;;;;;;10.10;9.80;;;15.10;99.90;;;;;;5164082;27;20232;-80
2023/10/14 14:17:55;;;;;;;10.15;9.85;;;15.10;99.90;;;;;;5162581;27;20255;-80
2023/10/14 14:20:24;;;;;;;10.10;9.80;;;15.00;99.90;;;;;;5164697;27;20299;-80
2023/10/14 14:22:55;;;;;;;10.27;9.98;;;14.90;99.90;;;;;;5166908;27;20257;-83
2023/10/14 14:25:24;;;;;;;10.00;9.70;;;14.80;99.90;;;;;;5164974;27;20257;-80
2023/10/14 14:27:53;;;;;;;10.13;9.82;;;14.90;99.90;;;;;;5163910;27;20235;-81
2023/10/14 14:30:21;;;;;;;9.90;9.60;;;15.00;99.90;;;;;;5164256;27;20254;-81
2023/10/14 14:32:50;;;;;;;10.13;9.82;;;15.10;99.90;;;;;;5164400;27;20228;-81
2023/10/14 14:35:18;;;;;;;10.07;9.77;;;15.10;99.90;;;;;;5164475;27;20328;-81
2023/10/14 14:37:45;;;;;;;10.05;9.75;;;15.10;99.90;;;;;;5163721;27;20223;-80